sensor_id;sensor_type;location;lat;lon;timestamp;P1;durP1;ratioP1;P2;durP2;ratioP2
22644;SDS011;11489;50.834;6.752;2024-01-30T00:01:50;13.95;;;8.02;;
22644;SDS011;11489;50.834;6.752;2024-01-30T00:04:15;14.02;;;8.00;;
22644;SDS011;11489;50.834;6.752;2024-01-30T00:06:42;12.77;;;7.75;;
22644;SDS011;11489;50.834;6.752;2024-01-30T00:09:08;12.68;;;7.63;;
22644;SDS011;11489;50.834;6.752;2024-01-30T00:11:35;15.88;;;8.38;;
22644;SDS011;11489;50.834;6.752;2024-01-30T00:14:01;13.05;;;8.48;;
22644;SDS011;11489;50.834;6.752;2024-01-30T00:16:28;13.93;;;8.63;;
22644;SDS011;11489;50.834;6.752;2024-01-30T00:18:54;15.65;;;8.55;;
22644;SDS011;11489;50.834;6.752;2024-01-30T00:21:20;14.88;;;8.48;;
22644;SDS011;11489;50.834;6.752;2024-01-30T00:23:46;13.40;;;8.25;;
22644;SDS011;11489;50.834;6.752;2024-01-30T00:26:12;15.20;;;8.32;;
22644;SDS011;11489;50.834;6.752;2024-01-30T00:28:43;12.52;;;8.57;;
22644;SDS011;11489;50.834;6.752;2024-01-30T00:31:09;12.98;;;8.27;;
22644;SDS011;11489;50.834;6.752;2024-01-30T00:33:40;14.25;;;8.32;;
22644;SDS011;11489;50.834;6.752;2024-01-30T00:36:07;14.25;;;8.18;;
22644;SDS011;11489;50.834;6.752;2024-01-30T00:38:33;15.77;;;8.82;;
22644;SDS011;11489;50.834;6.752;2024-01-30T00:40:59;14.07;;;8.13;;
22644;SDS011;11489;50.834;6.752;2024-01-30T00:43:25;17.83;;;8.75;;
22644;SDS011;11489;50.834;6.752;2024-01-30T00:45:51;15.90;;;8.55;;
22644;SDS011;11489;50.834;6.752;2024-01-30T00:48:19;15.88;;;8.68;;
22644;SDS011;11489;50.834;6.752;2024-01-30T00:50:45;14.48;;;8.45;;
22644;SDS011;11489;50.834;6.752;2024-01-30T00:53:11;16.67;;;8.52;;
22644;SDS011;11489;50.834;6.752;2024-01-30T00:55:36;14.77;;;8.95;;
22644;SDS011;11489;50.834;6.752;2024-01-30T00:58:02;17.45;;;8.55;;
22644;SDS011;11489;50.834;6.752;2024-01-30T01:00:29;16.00;;;8.45;;
22644;SDS011;11489;50.834;6.752;2024-01-30T01:02:57;12.45;;;8.35;;
22644;SDS011;11489;50.834;6.752;2024-01-30T01:05:23;15.55;;;8.23;;
22644;SDS011;11489;50.834;6.752;2024-01-30T01:07:49;13.93;;;8.73;;
22644;SDS011;11489;50.834;6.752;2024-01-30T01:10:15;14.15;;;7.72;;
22644;SDS011;11489;50.834;6.752;2024-01-30T01:12:42;12.98;;;8.07;;
22644;SDS011;11489;50.834;6.752;2024-01-30T01:15:08;18.60;;;8.82;;
22644;SDS011;11489;50.834;6.752;2024-01-30T01:17:40;15.38;;;9.02;;
22644;SDS011;11489;50.834;6.752;2024-01-30T01:20:06;14.35;;;8.40;;
22644;SDS011;11489;50.834;6.752;2024-01-30T01:22:32;15.07;;;8.68;;
22644;SDS011;11489;50.834;6.752;2024-01-30T01:24:59;19.38;;;8.30;;
22644;SDS011;11489;50.834;6.752;2024-01-30T01:27:25;17.45;;;8.60;;
22644;SDS011;11489;50.834;6.752;2024-01-30T01:29:51;16.20;;;8.68;;
22644;SDS011;11489;50.834;6.752;2024-01-30T01:32:17;14.70;;;8.88;;
22644;SDS011;11489;50.834;6.752;2024-01-30T01:34:43;15.65;;;8.80;;
22644;SDS011;11489;50.834;6.752;2024-01-30T01:37:09;14.63;;;8.43;;
22644;SDS011;11489;50.834;6.752;2024-01-30T01:39:36;14.18;;;8.10;;
22644;SDS011;11489;50.834;6.752;2024-01-30T01:42:01;12.65;;;8.30;;
22644;SDS011;11489;50.834;6.752;2024-01-30T01:44:27;14.38;;;8.13;;
22644;SDS011;11489;50.834;6.752;2024-01-30T01:46:53;14.13;;;8.30;;
22644;SDS011;11489;50.834;6.752;2024-01-30T01:49:19;14.85;;;8.43;;
22644;SDS011;11489;50.834;6.752;2024-01-30T01:51:46;13.68;;;8.68;;
22644;SDS011;11489;50.834;6.752;2024-01-30T01:54:13;13.88;;;8.80;;
22644;SDS011;11489;50.834;6.752;2024-01-30T01:56:40;15.32;;;8.57;;
22644;SDS011;11489;50.834;6.752;2024-01-30T01:59:08;14.32;;;8.18;;
22644;SDS011;11489;50.834;6.752;2024-01-30T02:01:36;12.48;;;7.97;;
22644;SDS011;11489;50.834;6.752;2024-01-30T02:04:02;14.60;;;8.15;;
22644;SDS011;11489;50.834;6.752;2024-01-30T02:06:28;13.05;;;8.23;;
22644;SDS011;11489;50.834;6.752;2024-01-30T02:08:54;13.90;;;8.52;;
22644;SDS011;11489;50.834;6.752;2024-01-30T02:11:20;11.68;;;7.85;;
22644;SDS011;11489;50.834;6.752;2024-01-30T02:13:47;16.50;;;8.25;;
22644;SDS011;11489;50.834;6.752;2024-01-30T02:16:14;15.13;;;8.00;;
22644;SDS011;11489;50.834;6.752;2024-01-30T02:18:39;12.85;;;7.40;;
22644;SDS011;11489;50.834;6.752;2024-01-30T02:21:10;12.65;;;7.95;;
22644;SDS011;11489;50.834;6.752;2024-01-30T02:23:36;14.50;;;8.07;;
22644;SDS011;11489;50.834;6.752;2024-01-30T02:26:04;14.63;;;7.72;;
22644;SDS011;11489;50.834;6.752;2024-01-30T02:28:30;12.93;;;8.18;;
22644;SDS011;11489;50.834;6.752;2024-01-30T02:30:55;15.00;;;7.97;;
22644;SDS011;11489;50.834;6.752;2024-01-30T02:33:21;15.05;;;8.55;;
22644;SDS011;11489;50.834;6.752;2024-01-30T02:35:47;13.75;;;8.10;;
22644;SDS011;11489;50.834;6.752;2024-01-30T02:38:13;12.95;;;8.20;;
22644;SDS011;11489;50.834;6.752;2024-01-30T02:40:40;15.27;;;8.57;;
22644;SDS011;11489;50.834;6.752;2024-01-30T02:43:06;13.43;;;7.70;;
22644;SDS011;11489;50.834;6.752;2024-01-30T02:45:31;13.43;;;7.80;;
22644;SDS011;11489;50.834;6.752;2024-01-30T02:47:57;16.92;;;7.90;;
22644;SDS011;11489;50.834;6.752;2024-01-30T02:50:22;13.95;;;7.88;;
22644;SDS011;11489;50.834;6.752;2024-01-30T02:52:48;12.35;;;8.00;;
22644;SDS011;11489;50.834;6.752;2024-01-30T02:55:14;13.52;;;8.57;;
22644;SDS011;11489;50.834;6.752;2024-01-30T02:57:42;13.23;;;8.45;;
22644;SDS011;11489;50.834;6.752;2024-01-30T03:00:08;12.48;;;7.95;;
22644;SDS011;11489;50.834;6.752;2024-01-30T03:02:35;14.40;;;7.53;;
22644;SDS011;11489;50.834;6.752;2024-01-30T03:05:01;11.70;;;7.43;;
22644;SDS011;11489;50.834;6.752;2024-01-30T03:07:28;12.93;;;7.53;;
22644;SDS011;11489;50.834;6.752;2024-01-30T03:09:54;13.07;;;7.82;;
22644;SDS011;11489;50.834;6.752;2024-01-30T03:12:20;14.73;;;7.95;;
22644;SDS011;11489;50.834;6.752;2024-01-30T03:14:47;12.27;;;7.90;;
22644;SDS011;11489;50.834;6.752;2024-01-30T03:17:13;13.02;;;7.63;;
22644;SDS011;11489;50.834;6.752;2024-01-30T03:19:38;13.57;;;8.10;;
22644;SDS011;11489;50.834;6.752;2024-01-30T03:22:04;15.52;;;7.47;;
22644;SDS011;11489;50.834;6.752;2024-01-30T03:24:30;14.63;;;8.15;;
22644;SDS011;11489;50.834;6.752;2024-01-30T03:26:55;15.52;;;7.60;;
22644;SDS011;11489;50.834;6.752;2024-01-30T03:29:21;12.70;;;7.00;;
22644;SDS011;11489;50.834;6.752;2024-01-30T03:31:47;12.75;;;7.30;;
22644;SDS011;11489;50.834;6.752;2024-01-30T03:34:12;12.73;;;7.82;;
22644;SDS011;11489;50.834;6.752;2024-01-30T03:36:38;11.30;;;7.32;;
22644;SDS011;11489;50.834;6.752;2024-01-30T03:39:04;13.82;;;7.68;;
22644;SDS011;11489;50.834;6.752;2024-01-30T03:41:31;13.45;;;7.28;;
22644;SDS011;11489;50.834;6.752;2024-01-30T03:43:57;11.77;;;7.53;;
22644;SDS011;11489;50.834;6.752;2024-01-30T03:46:23;12.05;;;7.00;;
22644;SDS011;11489;50.834;6.752;2024-01-30T03:48:49;13.35;;;8.00;;
22644;SDS011;11489;50.834;6.752;2024-01-30T03:51:15;13.90;;;7.57;;
22644;SDS011;11489;50.834;6.752;2024-01-30T03:53:41;13.82;;;7.13;;
22644;SDS011;11489;50.834;6.752;2024-01-30T03:56:07;12.20;;;7.25;;
22644;SDS011;11489;50.834;6.752;2024-01-30T03:58:33;12.57;;;7.00;;
22644;SDS011;11489;50.834;6.752;2024-01-30T04:00:59;11.95;;;7.22;;
22644;SDS011;11489;50.834;6.752;2024-01-30T04:03:25;11.85;;;6.57;;
22644;SDS011;11489;50.834;6.752;2024-01-30T04:05:53;14.38;;;6.75;;
22644;SDS011;11489;50.834;6.752;2024-01-30T04:08:19;10.68;;;6.38;;
22644;SDS011;11489;50.834;6.752;2024-01-30T04:10:45;11.80;;;7.13;;
22644;SDS011;11489;50.834;6.752;2024-01-30T04:13:11;11.48;;;7.28;;
22644;SDS011;11489;50.834;6.752;2024-01-30T04:15:37;13.30;;;7.13;;
22644;SDS011;11489;50.834;6.752;2024-01-30T04:18:03;13.85;;;7.35;;
22644;SDS011;11489;50.834;6.752;2024-01-30T04:20:29;13.40;;;7.20;;
22644;SDS011;11489;50.834;6.752;2024-01-30T04:22:55;11.18;;;6.80;;
22644;SDS011;11489;50.834;6.752;2024-01-30T04:25:20;12.32;;;6.95;;
22644;SDS011;11489;50.834;6.752;2024-01-30T04:27:47;12.13;;;7.25;;
22644;SDS011;11489;50.834;6.752;2024-01-30T04:30:13;12.50;;;7.57;;
22644;SDS011;11489;50.834;6.752;2024-01-30T04:32:39;11.02;;;6.78;;
22644;SDS011;11489;50.834;6.752;2024-01-30T04:35:05;15.45;;;7.43;;
22644;SDS011;11489;50.834;6.752;2024-01-30T04:37:31;12.07;;;7.10;;
22644;SDS011;11489;50.834;6.752;2024-01-30T04:39:56;14.57;;;7.43;;
22644;SDS011;11489;50.834;6.752;2024-01-30T04:42:22;13.75;;;6.88;;
22644;SDS011;11489;50.834;6.752;2024-01-30T04:44:48;10.60;;;6.80;;
22644;SDS011;11489;50.834;6.752;2024-01-30T04:47:14;11.90;;;6.80;;
22644;SDS011;11489;50.834;6.752;2024-01-30T04:49:39;10.30;;;6.18;;
22644;SDS011;11489;50.834;6.752;2024-01-30T04:52:05;10.05;;;6.88;;
22644;SDS011;11489;50.834;6.752;2024-01-30T04:54:31;11.43;;;6.82;;
22644;SDS011;11489;50.834;6.752;2024-01-30T04:56:57;12.40;;;7.38;;
22644;SDS011;11489;50.834;6.752;2024-01-30T04:59:23;12.63;;;6.72;;
22644;SDS011;11489;50.834;6.752;2024-01-30T05:01:49;10.50;;;6.65;;
22644;SDS011;11489;50.834;6.752;2024-01-30T05:04:15;15.38;;;7.63;;
22644;SDS011;11489;50.834;6.752;2024-01-30T05:06:41;14.40;;;6.93;;
22644;SDS011;11489;50.834;6.752;2024-01-30T05:09:06;16.02;;;7.63;;
22644;SDS011;11489;50.834;6.752;2024-01-30T05:11:39;12.98;;;7.50;;
22644;SDS011;11489;50.834;6.752;2024-01-30T05:14:05;13.35;;;6.80;;
22644;SDS011;11489;50.834;6.752;2024-01-30T05:16:32;13.63;;;7.38;;
22644;SDS011;11489;50.834;6.752;2024-01-30T05:18:58;10.75;;;7.13;;
22644;SDS011;11489;50.834;6.752;2024-01-30T05:21:24;11.90;;;7.15;;
22644;SDS011;11489;50.834;6.752;2024-01-30T05:23:49;13.93;;;7.45;;
22644;SDS011;11489;50.834;6.752;2024-01-30T05:26:15;12.85;;;7.45;;
22644;SDS011;11489;50.834;6.752;2024-01-30T05:28:41;14.00;;;7.63;;
22644;SDS011;11489;50.834;6.752;2024-01-30T05:31:07;10.70;;;7.18;;
22644;SDS011;11489;50.834;6.752;2024-01-30T05:33:33;11.20;;;7.30;;
22644;SDS011;11489;50.834;6.752;2024-01-30T05:35:59;14.20;;;7.43;;
22644;SDS011;11489;50.834;6.752;2024-01-30T05:38:24;15.02;;;7.60;;
22644;SDS011;11489;50.834;6.752;2024-01-30T05:40:50;12.90;;;7.78;;
22644;SDS011;11489;50.834;6.752;2024-01-30T05:43:16;14.02;;;8.18;;
22644;SDS011;11489;50.834;6.752;2024-01-30T05:45:41;17.08;;;7.88;;
22644;SDS011;11489;50.834;6.752;2024-01-30T05:48:07;15.75;;;7.53;;
22644;SDS011;11489;50.834;6.752;2024-01-30T05:50:33;13.63;;;7.40;;
22644;SDS011;11489;50.834;6.752;2024-01-30T05:53:01;11.15;;;7.13;;
22644;SDS011;11489;50.834;6.752;2024-01-30T05:55:26;12.93;;;7.25;;
22644;SDS011;11489;50.834;6.752;2024-01-30T05:57:52;17.45;;;7.57;;
22644;SDS011;11489;50.834;6.752;2024-01-30T06:00:18;15.15;;;8.15;;
22644;SDS011;11489;50.834;6.752;2024-01-30T06:02:43;13.02;;;7.53;;
22644;SDS011;11489;50.834;6.752;2024-01-30T06:05:09;13.77;;;7.65;;
22644;SDS011;11489;50.834;6.752;2024-01-30T06:07:35;12.25;;;7.32;;
22644;SDS011;11489;50.834;6.752;2024-01-30T06:10:00;12.50;;;7.50;;
22644;SDS011;11489;50.834;6.752;2024-01-30T06:12:27;13.50;;;7.72;;
22644;SDS011;11489;50.834;6.752;2024-01-30T06:14:53;13.13;;;7.75;;
22644;SDS011;11489;50.834;6.752;2024-01-30T06:17:22;14.43;;;7.65;;
22644;SDS011;11489;50.834;6.752;2024-01-30T06:19:48;15.05;;;8.75;;
22644;SDS011;11489;50.834;6.752;2024-01-30T06:22:14;14.05;;;7.88;;
22644;SDS011;11489;50.834;6.752;2024-01-30T06:24:40;13.88;;;7.38;;
22644;SDS011;11489;50.834;6.752;2024-01-30T06:27:06;11.90;;;7.15;;
22644;SDS011;11489;50.834;6.752;2024-01-30T06:29:32;11.90;;;6.93;;
22644;SDS011;11489;50.834;6.752;2024-01-30T06:31:57;12.38;;;7.55;;
22644;SDS011;11489;50.834;6.752;2024-01-30T06:34:23;14.00;;;7.97;;
22644;SDS011;11489;50.834;6.752;2024-01-30T06:36:49;12.95;;;7.25;;
22644;SDS011;11489;50.834;6.752;2024-01-30T06:39:15;13.02;;;7.32;;
22644;SDS011;11489;50.834;6.752;2024-01-30T06:41:40;12.75;;;7.25;;
22644;SDS011;11489;50.834;6.752;2024-01-30T06:44:06;12.82;;;8.02;;
22644;SDS011;11489;50.834;6.752;2024-01-30T06:46:33;15.05;;;7.95;;
22644;SDS011;11489;50.834;6.752;2024-01-30T06:48:59;13.43;;;7.75;;
22644;SDS011;11489;50.834;6.752;2024-01-30T06:51:25;14.68;;;7.97;;
22644;SDS011;11489;50.834;6.752;2024-01-30T06:53:50;11.30;;;7.00;;
22644;SDS011;11489;50.834;6.752;2024-01-30T06:56:16;13.35;;;8.13;;
22644;SDS011;11489;50.834;6.752;2024-01-30T06:58:46;12.23;;;7.22;;
22644;SDS011;11489;50.834;6.752;2024-01-30T07:01:13;13.20;;;7.47;;
22644;SDS011;11489;50.834;6.752;2024-01-30T07:03:39;12.82;;;7.72;;
22644;SDS011;11489;50.834;6.752;2024-01-30T07:06:04;13.48;;;7.60;;
22644;SDS011;11489;50.834;6.752;2024-01-30T07:08:30;14.25;;;7.78;;
22644;SDS011;11489;50.834;6.752;2024-01-30T07:10:56;12.77;;;7.72;;
22644;SDS011;11489;50.834;6.752;2024-01-30T07:13:22;14.60;;;7.82;;
22644;SDS011;11489;50.834;6.752;2024-01-30T07:15:47;13.07;;;7.72;;
22644;SDS011;11489;50.834;6.752;2024-01-30T07:18:13;11.50;;;7.45;;
22644;SDS011;11489;50.834;6.752;2024-01-30T07:20:39;12.05;;;7.63;;
22644;SDS011;11489;50.834;6.752;2024-01-30T07:23:13;15.48;;;8.20;;
22644;SDS011;11489;50.834;6.752;2024-01-30T07:25:41;12.57;;;7.40;;
22644;SDS011;11489;50.834;6.752;2024-01-30T07:28:07;12.60;;;7.57;;
22644;SDS011;11489;50.834;6.752;2024-01-30T07:30:37;14.45;;;7.80;;
22644;SDS011;11489;50.834;6.752;2024-01-30T07:33:03;13.60;;;8.00;;
22644;SDS011;11489;50.834;6.752;2024-01-30T07:35:29;13.70;;;8.15;;
22644;SDS011;11489;50.834;6.752;2024-01-30T07:37:55;17.70;;;7.80;;
22644;SDS011;11489;50.834;6.752;2024-01-30T07:40:22;14.30;;;7.53;;
22644;SDS011;11489;50.834;6.752;2024-01-30T07:42:48;12.73;;;7.55;;
22644;SDS011;11489;50.834;6.752;2024-01-30T07:45:14;12.45;;;7.53;;
22644;SDS011;11489;50.834;6.752;2024-01-30T07:47:48;13.35;;;7.85;;
22644;SDS011;11489;50.834;6.752;2024-01-30T07:50:14;13.18;;;7.53;;
22644;SDS011;11489;50.834;6.752;2024-01-30T07:52:39;14.52;;;8.32;;
22644;SDS011;11489;50.834;6.752;2024-01-30T07:55:05;14.02;;;8.13;;
22644;SDS011;11489;50.834;6.752;2024-01-30T07:57:33;12.93;;;7.60;;
22644;SDS011;11489;50.834;6.752;2024-01-30T07:59:59;15.10;;;8.15;;
22644;SDS011;11489;50.834;6.752;2024-01-30T08:02:25;12.48;;;7.68;;
22644;SDS011;11489;50.834;6.752;2024-01-30T08:04:51;11.35;;;7.55;;
22644;SDS011;11489;50.834;6.752;2024-01-30T08:07:16;13.70;;;7.57;;
22644;SDS011;11489;50.834;6.752;2024-01-30T08:09:43;11.15;;;7.25;;
22644;SDS011;11489;50.834;6.752;2024-01-30T08:12:09;14.52;;;7.53;;
22644;SDS011;11489;50.834;6.752;2024-01-30T08:14:34;12.10;;;7.35;;
22644;SDS011;11489;50.834;6.752;2024-01-30T08:17:00;9.60;;;6.50;;
22644;SDS011;11489;50.834;6.752;2024-01-30T08:19:26;11.90;;;7.50;;
22644;SDS011;11489;50.834;6.752;2024-01-30T08:21:51;13.27;;;7.00;;
22644;SDS011;11489;50.834;6.752;2024-01-30T08:24:17;13.00;;;7.68;;
22644;SDS011;11489;50.834;6.752;2024-01-30T08:26:42;11.25;;;7.30;;
22644;SDS011;11489;50.834;6.752;2024-01-30T08:29:08;13.30;;;7.13;;
22644;SDS011;11489;50.834;6.752;2024-01-30T08:31:34;11.80;;;7.40;;
22644;SDS011;11489;50.834;6.752;2024-01-30T08:33:59;12.57;;;7.35;;
22644;SDS011;11489;50.834;6.752;2024-01-30T08:36:25;12.63;;;7.15;;
22644;SDS011;11489;50.834;6.752;2024-01-30T08:38:51;13.00;;;7.32;;
22644;SDS011;11489;50.834;6.752;2024-01-30T08:41:16;12.60;;;7.55;;
22644;SDS011;11489;50.834;6.752;2024-01-30T08:43:42;12.25;;;7.90;;
22644;SDS011;11489;50.834;6.752;2024-01-30T08:46:09;13.02;;;7.03;;
22644;SDS011;11489;50.834;6.752;2024-01-30T08:48:35;11.15;;;6.85;;
22644;SDS011;11489;50.834;6.752;2024-01-30T08:51:01;11.13;;;7.18;;
22644;SDS011;11489;50.834;6.752;2024-01-30T08:53:27;9.98;;;6.82;;
22644;SDS011;11489;50.834;6.752;2024-01-30T08:55:53;13.27;;;6.90;;
22644;SDS011;11489;50.834;6.752;2024-01-30T08:58:19;10.05;;;6.53;;
22644;SDS011;11489;50.834;6.752;2024-01-30T09:00:44;11.73;;;7.20;;
22644;SDS011;11489;50.834;6.752;2024-01-30T09:03:10;13.70;;;7.35;;
22644;SDS011;11489;50.834;6.752;2024-01-30T09:05:36;10.65;;;7.38;;
22644;SDS011;11489;50.834;6.752;2024-01-30T09:08:01;12.20;;;7.68;;
22644;SDS011;11489;50.834;6.752;2024-01-30T09:10:27;11.45;;;6.65;;
22644;SDS011;11489;50.834;6.752;2024-01-30T09:12:53;13.43;;;7.30;;
22644;SDS011;11489;50.834;6.752;2024-01-30T09:15:18;14.52;;;7.63;;
22644;SDS011;11489;50.834;6.752;2024-01-30T09:17:44;10.93;;;6.93;;
22644;SDS011;11489;50.834;6.752;2024-01-30T09:20:10;9.88;;;6.93;;
22644;SDS011;11489;50.834;6.752;2024-01-30T09:22:36;11.73;;;6.80;;
22644;SDS011;11489;50.834;6.752;2024-01-30T09:25:01;11.68;;;6.72;;
22644;SDS011;11489;50.834;6.752;2024-01-30T09:27:27;11.20;;;6.25;;
22644;SDS011;11489;50.834;6.752;2024-01-30T09:29:53;13.45;;;6.90;;
22644;SDS011;11489;50.834;6.752;2024-01-30T09:32:18;10.00;;;6.13;;
22644;SDS011;11489;50.834;6.752;2024-01-30T09:34:44;11.80;;;6.50;;
22644;SDS011;11489;50.834;6.752;2024-01-30T09:37:10;11.45;;;6.65;;
22644;SDS011;11489;50.834;6.752;2024-01-30T09:39:36;10.98;;;6.35;;
22644;SDS011;11489;50.834;6.752;2024-01-30T09:44:55;8.73;;;5.70;;
22644;SDS011;11489;50.834;6.752;2024-01-30T09:47:21;9.55;;;6.00;;
22644;SDS011;11489;50.834;6.752;2024-01-30T09:49:47;9.35;;;5.90;;
22644;SDS011;11489;50.834;6.752;2024-01-30T09:52:13;10.23;;;5.97;;
22644;SDS011;11489;50.834;6.752;2024-01-30T09:54:40;9.65;;;5.72;;
22644;SDS011;11489;50.834;6.752;2024-01-30T09:57:07;9.88;;;5.82;;
22644;SDS011;11489;50.834;6.752;2024-01-30T09:59:33;9.32;;;5.65;;
22644;SDS011;11489;50.834;6.752;2024-01-30T10:01:59;8.38;;;5.63;;
22644;SDS011;11489;50.834;6.752;2024-01-30T10:04:25;8.60;;;5.60;;
22644;SDS011;11489;50.834;6.752;2024-01-30T10:06:51;8.32;;;5.55;;
22644;SDS011;11489;50.834;6.752;2024-01-30T10:09:16;10.80;;;5.70;;
22644;SDS011;11489;50.834;6.752;2024-01-30T10:11:42;11.45;;;5.75;;
22644;SDS011;11489;50.834;6.752;2024-01-30T10:14:08;8.95;;;5.80;;
22644;SDS011;11489;50.834;6.752;2024-01-30T10:16:36;9.20;;;5.90;;
22644;SDS011;11489;50.834;6.752;2024-01-30T10:19:02;8.95;;;5.47;;
22644;SDS011;11489;50.834;6.752;2024-01-30T10:21:29;8.10;;;5.18;;
22644;SDS011;11489;50.834;6.752;2024-01-30T10:23:55;12.02;;;5.65;;
22644;SDS011;11489;50.834;6.752;2024-01-30T10:26:21;8.23;;;5.43;;
22644;SDS011;11489;50.834;6.752;2024-01-30T10:28:47;11.82;;;5.55;;
22644;SDS011;11489;50.834;6.752;2024-01-30T10:31:17;8.13;;;5.60;;
22644;SDS011;11489;50.834;6.752;2024-01-30T10:33:44;8.93;;;5.15;;
22644;SDS011;11489;50.834;6.752;2024-01-30T10:36:09;8.88;;;5.45;;
22644;SDS011;11489;50.834;6.752;2024-01-30T10:38:38;8.20;;;5.88;;
22644;SDS011;11489;50.834;6.752;2024-01-30T10:41:07;8.68;;;5.45;;
22644;SDS011;11489;50.834;6.752;2024-01-30T10:43:40;9.23;;;5.60;;
22644;SDS011;11489;50.834;6.752;2024-01-30T10:46:10;8.13;;;5.75;;
22644;SDS011;11489;50.834;6.752;2024-01-30T10:48:43;10.55;;;5.93;;
22644;SDS011;11489;50.834;6.752;2024-01-30T10:51:14;8.70;;;5.47;;
22644;SDS011;11489;50.834;6.752;2024-01-30T10:53:40;9.85;;;5.65;;
22644;SDS011;11489;50.834;6.752;2024-01-30T10:56:08;7.95;;;5.80;;
22644;SDS011;11489;50.834;6.752;2024-01-30T10:58:35;8.73;;;5.40;;
22644;SDS011;11489;50.834;6.752;2024-01-30T11:01:00;9.25;;;5.82;;
22644;SDS011;11489;50.834;6.752;2024-01-30T11:03:27;11.18;;;5.80;;
22644;SDS011;11489;50.834;6.752;2024-01-30T11:05:53;8.52;;;5.40;;
22644;SDS011;11489;50.834;6.752;2024-01-30T11:08:24;7.90;;;5.95;;
22644;SDS011;11489;50.834;6.752;2024-01-30T11:10:57;10.85;;;6.13;;
22644;SDS011;11489;50.834;6.752;2024-01-30T11:13:30;12.55;;;6.20;;
22644;SDS011;11489;50.834;6.752;2024-01-30T11:15:59;13.25;;;7.25;;
22644;SDS011;11489;50.834;6.752;2024-01-30T11:18:29;10.15;;;6.80;;
22644;SDS011;11489;50.834;6.752;2024-01-30T11:20:56;10.45;;;6.20;;
22644;SDS011;11489;50.834;6.752;2024-01-30T11:23:23;12.52;;;6.75;;
22644;SDS011;11489;50.834;6.752;2024-01-30T11:25:51;11.50;;;6.22;;
22644;SDS011;11489;50.834;6.752;2024-01-30T11:28:18;8.13;;;5.03;;
22644;SDS011;11489;50.834;6.752;2024-01-30T11:30:43;9.73;;;5.63;;
22644;SDS011;11489;50.834;6.752;2024-01-30T11:33:11;8.20;;;5.30;;
22644;SDS011;11489;50.834;6.752;2024-01-30T11:35:38;10.45;;;5.55;;
22644;SDS011;11489;50.834;6.752;2024-01-30T11:38:05;8.65;;;5.30;;
22644;SDS011;11489;50.834;6.752;2024-01-30T11:40:33;10.38;;;4.97;;
22644;SDS011;11489;50.834;6.752;2024-01-30T11:43:00;8.63;;;5.47;;
22644;SDS011;11489;50.834;6.752;2024-01-30T11:45:29;9.02;;;5.20;;
22644;SDS011;11489;50.834;6.752;2024-01-30T11:47:55;11.48;;;5.22;;
22644;SDS011;11489;50.834;6.752;2024-01-30T11:50:21;9.23;;;5.40;;
22644;SDS011;11489;50.834;6.752;2024-01-30T11:52:47;9.35;;;5.57;;
22644;SDS011;11489;50.834;6.752;2024-01-30T11:55:13;10.20;;;5.35;;
22644;SDS011;11489;50.834;6.752;2024-01-30T11:57:40;12.70;;;6.18;;
22644;SDS011;11489;50.834;6.752;2024-01-30T12:00:06;14.05;;;5.80;;
22644;SDS011;11489;50.834;6.752;2024-01-30T12:02:39;10.10;;;5.22;;
22644;SDS011;11489;50.834;6.752;2024-01-30T12:05:08;8.60;;;5.25;;
22644;SDS011;11489;50.834;6.752;2024-01-30T12:07:35;11.10;;;5.00;;
22644;SDS011;11489;50.834;6.752;2024-01-30T12:10:01;9.18;;;5.18;;
22644;SDS011;11489;50.834;6.752;2024-01-30T12:12:27;10.05;;;5.80;;
22644;SDS011;11489;50.834;6.752;2024-01-30T12:14:54;13.55;;;7.15;;
22644;SDS011;11489;50.834;6.752;2024-01-30T12:17:39;11.50;;;6.88;;
22644;SDS011;11489;50.834;6.752;2024-01-30T12:20:09;11.18;;;6.70;;
22644;SDS011;11489;50.834;6.752;2024-01-30T12:22:37;11.95;;;7.03;;
22644;SDS011;11489;50.834;6.752;2024-01-30T12:25:05;11.00;;;7.22;;
22644;SDS011;11489;50.834;6.752;2024-01-30T12:27:33;12.30;;;6.72;;
22644;SDS011;11489;50.834;6.752;2024-01-30T12:29:59;11.45;;;6.55;;
22644;SDS011;11489;50.834;6.752;2024-01-30T12:32:25;8.20;;;5.82;;
22644;SDS011;11489;50.834;6.752;2024-01-30T12:34:54;10.77;;;5.50;;
22644;SDS011;11489;50.834;6.752;2024-01-30T12:37:20;9.07;;;6.05;;
22644;SDS011;11489;50.834;6.752;2024-01-30T12:39:48;9.18;;;5.95;;
22644;SDS011;11489;50.834;6.752;2024-01-30T12:42:14;13.63;;;6.10;;
22644;SDS011;11489;50.834;6.752;2024-01-30T12:44:40;11.05;;;5.80;;
22644;SDS011;11489;50.834;6.752;2024-01-30T12:47:08;13.52;;;5.60;;
22644;SDS011;11489;50.834;6.752;2024-01-30T12:49:34;9.90;;;5.80;;
22644;SDS011;11489;50.834;6.752;2024-01-30T12:51:59;10.80;;;6.40;;
22644;SDS011;11489;50.834;6.752;2024-01-30T12:54:25;11.38;;;5.93;;
22644;SDS011;11489;50.834;6.752;2024-01-30T12:56:51;11.77;;;5.82;;
22644;SDS011;11489;50.834;6.752;2024-01-30T12:59:17;11.68;;;5.35;;
22644;SDS011;11489;50.834;6.752;2024-01-30T13:01:42;9.98;;;5.35;;
22644;SDS011;11489;50.834;6.752;2024-01-30T13:04:08;9.88;;;5.05;;
22644;SDS011;11489;50.834;6.752;2024-01-30T13:06:34;9.93;;;5.50;;
22644;SDS011;11489;50.834;6.752;2024-01-30T13:09:02;7.88;;;4.80;;
22644;SDS011;11489;50.834;6.752;2024-01-30T13:11:28;9.82;;;5.97;;
22644;SDS011;11489;50.834;6.752;2024-01-30T13:13:54;11.98;;;5.80;;
22644;SDS011;11489;50.834;6.752;2024-01-30T13:16:19;10.95;;;4.90;;
22644;SDS011;11489;50.834;6.752;2024-01-30T13:18:45;10.38;;;5.72;;
22644;SDS011;11489;50.834;6.752;2024-01-30T13:21:11;10.43;;;6.20;;
22644;SDS011;11489;50.834;6.752;2024-01-30T13:23:36;11.93;;;5.90;;
22644;SDS011;11489;50.834;6.752;2024-01-30T13:26:02;15.00;;;6.72;;
22644;SDS011;11489;50.834;6.752;2024-01-30T13:28:28;14.15;;;6.50;;
22644;SDS011;11489;50.834;6.752;2024-01-30T13:30:53;10.70;;;5.85;;
22644;SDS011;11489;50.834;6.752;2024-01-30T13:33:19;13.32;;;5.53;;
22644;SDS011;11489;50.834;6.752;2024-01-30T13:35:44;10.00;;;5.88;;
22644;SDS011;11489;50.834;6.752;2024-01-30T13:38:10;10.10;;;5.70;;
22644;SDS011;11489;50.834;6.752;2024-01-30T13:40:36;11.50;;;5.70;;
22644;SDS011;11489;50.834;6.752;2024-01-30T13:43:02;10.50;;;5.63;;
22644;SDS011;11489;50.834;6.752;2024-01-30T13:45:27;8.40;;;4.70;;
22644;SDS011;11489;50.834;6.752;2024-01-30T13:47:53;12.27;;;4.70;;
22644;SDS011;11489;50.834;6.752;2024-01-30T13:50:19;6.95;;;4.53;;
22644;SDS011;11489;50.834;6.752;2024-01-30T13:52:45;9.85;;;4.75;;
22644;SDS011;11489;50.834;6.752;2024-01-30T13:55:11;9.60;;;4.70;;
22644;SDS011;11489;50.834;6.752;2024-01-30T13:57:36;5.57;;;3.97;;
22644;SDS011;11489;50.834;6.752;2024-01-30T14:00:03;11.57;;;4.22;;
22644;SDS011;11489;50.834;6.752;2024-01-30T14:02:31;7.57;;;3.83;;
22644;SDS011;11489;50.834;6.752;2024-01-30T14:04:57;8.60;;;4.07;;
22644;SDS011;11489;50.834;6.752;2024-01-30T14:07:23;8.80;;;4.18;;
22644;SDS011;11489;50.834;6.752;2024-01-30T14:09:48;6.13;;;3.67;;
22644;SDS011;11489;50.834;6.752;2024-01-30T14:12:14;7.93;;;3.95;;
22644;SDS011;11489;50.834;6.752;2024-01-30T14:14:40;9.85;;;4.28;;
22644;SDS011;11489;50.834;6.752;2024-01-30T14:17:06;8.38;;;4.50;;
22644;SDS011;11489;50.834;6.752;2024-01-30T14:19:33;8.43;;;3.88;;
22644;SDS011;11489;50.834;6.752;2024-01-30T14:21:59;8.00;;;4.07;;
22644;SDS011;11489;50.834;6.752;2024-01-30T14:24:25;8.77;;;4.30;;
22644;SDS011;11489;50.834;6.752;2024-01-30T14:26:50;11.07;;;3.80;;
22644;SDS011;11489;50.834;6.752;2024-01-30T14:29:16;9.10;;;4.20;;
22644;SDS011;11489;50.834;6.752;2024-01-30T14:31:42;8.18;;;4.13;;
22644;SDS011;11489;50.834;6.752;2024-01-30T14:34:07;7.75;;;4.63;;